createdAt,value
2022-09-18T00:01:31.264Z,15.90
2022-09-18T00:04:02.280Z,15.90
2022-09-18T00:06:36.592Z,15.90
2022-09-18T00:09:06.749Z,16.00
2022-09-18T00:11:41.709Z,16.00
2022-09-18T00:14:12.640Z,16.00
2022-09-18T00:16:40.305Z,16.00
2022-09-18T00:19:08.376Z,16.10
2022-09-18T00:21:37.318Z,16.00
2022-09-18T00:24:05.096Z,16.00
2022-09-18T00:26:33.391Z,16.00
2022-09-18T00:29:00.467Z,15.90
2022-09-18T00:31:31.282Z,16.00
2022-09-18T00:34:02.546Z,15.90
2022-09-18T00:36:30.197Z,15.90
2022-09-18T00:38:59.199Z,15.90
2022-09-18T00:41:32.274Z,15.90
2022-09-18T00:44:36.562Z,15.80
2022-09-18T00:47:09.781Z,15.80
2022-09-18T00:49:44.147Z,15.80
2022-09-18T00:52:14.291Z,15.80
2022-09-18T00:54:47.745Z,15.70
2022-09-18T00:57:24.600Z,15.70
2022-09-18T00:59:52.951Z,15.60
2022-09-18T01:02:20.139Z,15.60
2022-09-18T01:04:48.621Z,15.60
2022-09-18T01:07:38.969Z,15.60
2022-09-18T01:10:33.521Z,15.60
2022-09-18T01:13:19.911Z,15.60
2022-09-18T01:16:22.150Z,15.50
2022-09-18T01:18:58.565Z,15.50
2022-09-18T01:21:52.205Z,15.50
2022-09-18T01:24:56.500Z,15.50
2022-09-18T01:27:41.610Z,15.50
2022-09-18T01:30:11.496Z,15.50
2022-09-18T01:32:47.925Z,15.40
2022-09-18T01:35:40.661Z,15.40
2022-09-18T01:38:22.044Z,15.40
2022-09-18T01:41:01.257Z,15.40
2022-09-18T01:43:31.044Z,15.30
2022-09-18T01:46:04.324Z,15.30
2022-09-18T01:48:39.923Z,15.30
2022-09-18T01:51:21.398Z,15.30
2022-09-18T01:53:55.009Z,15.30
2022-09-18T01:56:31.950Z,15.30
2022-09-18T01:59:05.964Z,15.30
2022-09-18T02:01:44.684Z,15.30
2022-09-18T02:04:18.093Z,15.20
2022-09-18T02:07:24.051Z,15.20
2022-09-18T02:09:51.388Z,15.20
2022-09-18T02:12:23.457Z,15.20
2022-09-18T02:15:00.580Z,15.20
2022-09-18T02:17:51.282Z,15.20
2022-09-18T02:20:30.477Z,15.10
2022-09-18T02:23:03.550Z,15.20
2022-09-18T02:25:42.204Z,15.10
2022-09-18T02:28:11.083Z,15.20
2022-09-18T02:30:39.380Z,15.20
2022-09-18T02:33:32.839Z,15.10
2022-09-18T02:36:41.720Z,15.20
2022-09-18T02:39:44.973Z,15.20
2022-09-18T02:42:35.875Z,15.20
2022-09-18T02:45:30.640Z,15.20
2022-09-18T02:48:41.820Z,15.20
2022-09-18T02:51:29.686Z,15.20
2022-09-18T02:54:14.140Z,15.20
2022-09-18T02:56:45.530Z,15.20
2022-09-18T02:59:21.471Z,15.30
2022-09-18T03:01:55.634Z,15.20
2022-09-18T03:04:26.150Z,15.20
2022-09-18T03:07:04.595Z,15.20
2022-09-18T03:09:37.360Z,15.20
2022-09-18T03:12:04.358Z,15.20
2022-09-18T03:14:35.977Z,15.20
2022-09-18T03:17:03.737Z,15.20
2022-09-18T03:19:32.106Z,15.20
2022-09-18T03:22:00.242Z,15.20
2022-09-18T03:24:29.314Z,15.20
2022-09-18T03:26:57.537Z,15.20
2022-09-18T03:29:26.862Z,15.20
2022-09-18T03:31:55.648Z,15.20
2022-09-18T03:34:23.066Z,15.20
2022-09-18T03:36:51.095Z,15.20
2022-09-18T03:39:18.598Z,15.10
2022-09-18T03:41:46.876Z,15.20
2022-09-18T03:44:13.882Z,15.10
2022-09-18T03:46:42.548Z,15.10
2022-09-18T03:49:09.471Z,15.10
2022-09-18T03:51:39.314Z,15.10
2022-09-18T03:54:07.257Z,15.10
2022-09-18T03:56:52.861Z,15.10
2022-09-18T03:59:37.509Z,15.10
2022-09-18T04:02:30.494Z,15.10
2022-09-18T04:05:15.958Z,15.10
2022-09-18T04:08:12.357Z,15.30
2022-09-18T04:10:58.898Z,15.10
2022-09-18T04:13:25.840Z,15.10
2022-09-18T04:15:58.535Z,15.10
2022-09-18T04:18:25.564Z,15.10
2022-09-18T04:20:53.228Z,15.10
2022-09-18T04:23:20.646Z,15.10
2022-09-18T04:25:47.724Z,15.10
2022-09-18T04:28:14.642Z,15.10
2022-09-18T04:30:47.208Z,15.10
2022-09-18T04:33:16.009Z,15.10
2022-09-18T04:35:43.223Z,15.10
2022-09-18T04:38:11.149Z,15.10
2022-09-18T04:40:38.265Z,15.10
2022-09-18T04:43:05.522Z,15.10
2022-09-18T04:45:32.693Z,15.10
2022-09-18T04:47:59.964Z,15.10
2022-09-18T04:50:28.890Z,15.10
2022-09-18T04:53:15.700Z,15.10
2022-09-18T04:55:45.611Z,15.10
2022-09-18T04:58:17.238Z,15.10
2022-09-18T05:00:49.535Z,15.10
2022-09-18T05:03:19.312Z,15.10
2022-09-18T05:05:48.245Z,15.30
2022-09-18T05:08:16.864Z,15.10
2022-09-18T05:10:44.536Z,15.10
2022-09-18T05:13:11.903Z,15.10
2022-09-18T05:15:45.463Z,15.10
2022-09-18T05:18:12.879Z,15.10
2022-09-18T05:20:39.867Z,15.10
2022-09-18T05:23:08.372Z,15.10
2022-09-18T05:25:37.064Z,15.10
2022-09-18T05:28:05.001Z,15.10
2022-09-18T05:30:38.527Z,15.00
2022-09-18T05:33:07.397Z,15.00
2022-09-18T05:35:39.835Z,15.00
2022-09-18T05:38:07.440Z,14.90
2022-09-18T05:40:37.255Z,15.00
2022-09-18T05:43:05.869Z,15.00
2022-09-18T05:45:34.615Z,15.00
2022-09-18T05:48:07.541Z,15.00
2022-09-18T05:50:38.785Z,15.00
2022-09-18T05:53:13.094Z,15.00
2022-09-18T05:55:49.075Z,15.00
2022-09-18T05:58:18.439Z,15.00
2022-09-18T06:00:47.569Z,15.00
2022-09-18T06:03:23.054Z,15.00
2022-09-18T06:05:54.934Z,15.00
2022-09-18T06:08:23.414Z,15.00
2022-09-18T06:10:50.488Z,15.00
2022-09-18T06:13:18.744Z,15.00
2022-09-18T06:15:54.224Z,15.00
2022-09-18T06:18:31.929Z,15.00
2022-09-18T06:21:01.185Z,15.00
2022-09-18T06:23:29.819Z,15.00
2022-09-18T06:26:05.922Z,15.10
2022-09-18T06:28:34.851Z,15.10
2022-09-18T06:31:04.904Z,15.10
2022-09-18T06:33:49.029Z,15.10
2022-09-18T06:36:16.337Z,15.10
2022-09-18T06:38:59.498Z,15.10
2022-09-18T06:41:26.768Z,15.20
2022-09-18T06:43:54.917Z,15.20
2022-09-18T06:46:44.460Z,15.20
2022-09-18T06:49:23.415Z,15.30
2022-09-18T06:51:50.740Z,15.40
2022-09-18T06:54:18.122Z,15.40
2022-09-18T06:56:47.086Z,15.60
2022-09-18T06:59:15.723Z,15.60
2022-09-18T07:01:49.099Z,15.60
2022-09-18T07:04:21.541Z,15.70
2022-09-18T07:06:48.630Z,15.90
2022-09-18T07:09:15.583Z,16.00
2022-09-18T07:12:01.360Z,16.10
2022-09-18T07:14:44.122Z,16.20
2022-09-18T07:17:17.877Z,16.30
2022-09-18T07:19:47.991Z,16.60
2022-09-18T07:22:17.184Z,16.70
2022-09-18T07:24:47.102Z,16.90
2022-09-18T07:27:14.267Z,17.00
2022-09-18T07:29:42.490Z,17.20
2022-09-18T07:32:12.752Z,17.40
2022-09-18T07:34:39.783Z,17.60
2022-09-18T07:37:10.681Z,17.80
2022-09-18T07:39:38.363Z,18.10
2022-09-18T07:42:24.088Z,18.30
2022-09-18T07:44:53.873Z,18.50
2022-09-18T07:47:21.329Z,18.70
2022-09-18T07:49:48.510Z,18.80
2022-09-18T07:52:15.438Z,19.00
2022-09-18T07:54:45.936Z,19.20
2022-09-18T07:57:31.749Z,19.40
2022-09-18T08:00:13.175Z,19.50
2022-09-18T08:02:42.942Z,19.90
2022-09-18T08:05:16.143Z,20.20
2022-09-18T08:08:08.253Z,20.60
2022-09-18T08:10:58.295Z,20.80
2022-09-18T08:13:44.963Z,21.20
2022-09-18T08:16:28.498Z,21.40
2022-09-18T08:19:14.196Z,21.60
2022-09-18T08:21:45.218Z,21.90
2022-09-18T08:24:17.271Z,22.00
2022-09-18T08:26:45.877Z,22.10
2022-09-18T08:29:19.057Z,22.40
2022-09-18T08:31:56.588Z,22.30
2022-09-18T08:34:23.806Z,22.40
2022-09-18T08:36:50.728Z,22.70
2022-09-18T08:39:22.404Z,22.50
2022-09-18T08:42:39.825Z,22.50
2022-09-18T08:45:21.456Z,22.50
2022-09-18T08:47:57.696Z,22.70
2022-09-18T08:50:36.300Z,22.80
2022-09-18T08:53:26.614Z,23.00
2022-09-18T08:56:25.823Z,23.00
2022-09-18T09:00:10.918Z,23.00
2022-09-18T09:02:43.258Z,22.90
2022-09-18T09:05:22.380Z,23.20
2022-09-18T09:08:38.161Z,23.20
2022-09-18T09:11:31.217Z,23.40
2022-09-18T09:14:56.746Z,23.60
2022-09-18T09:18:17.753Z,24.00
2022-09-18T09:20:58.730Z,24.10
2022-09-18T09:23:58.113Z,24.20
2022-09-18T09:26:45.256Z,24.30
2022-09-18T09:32:55.417Z,24.00
2022-09-18T09:35:46.677Z,23.70
2022-09-18T09:38:53.907Z,23.50
2022-09-18T09:41:41.807Z,23.20
2022-09-18T09:44:34.080Z,23.00
2022-09-18T09:47:38.233Z,22.80
2022-09-18T09:50:36.749Z,22.80
2022-09-18T09:53:08.988Z,22.60
2022-09-18T09:55:58.073Z,22.50
2022-09-18T09:59:00.257Z,22.40
2022-09-18T10:01:46.181Z,22.50
2022-09-18T10:04:44.865Z,22.70
2022-09-18T10:07:21.416Z,22.90
2022-09-18T10:10:29.159Z,23.10
2022-09-18T10:13:04.640Z,23.10
2022-09-18T10:15:39.387Z,22.90
2022-09-18T10:18:34.341Z,22.70
2022-09-18T10:21:20.986Z,22.30
2022-09-18T10:24:30.012Z,22.10
2022-09-18T10:27:09.431Z,21.70
2022-09-18T10:29:36.408Z,21.80
2022-09-18T10:32:06.945Z,22.00
2022-09-18T10:34:47.501Z,22.40
2022-09-18T10:37:29.958Z,23.00
2022-09-18T10:40:39.666Z,23.70
2022-09-18T10:43:17.852Z,24.60
2022-09-18T10:46:09.597Z,25.40
2022-09-18T10:48:44.159Z,25.70
2022-09-18T10:51:18.140Z,25.80
2022-09-18T10:54:19.775Z,25.70
2022-09-18T10:57:31.277Z,25.50
2022-09-18T11:00:05.477Z,25.80
2022-09-18T11:02:53.242Z,26.10
2022-09-18T11:05:27.035Z,26.60
2022-09-18T11:07:57.772Z,27.00
2022-09-18T11:10:28.177Z,27.10
2022-09-18T11:12:58.193Z,27.10
2022-09-18T11:15:36.447Z,26.70
2022-09-18T11:18:06.855Z,26.10
2022-09-18T11:20:45.148Z,25.70
2022-09-18T11:23:28.973Z,25.30
2022-09-18T11:26:20.191Z,25.40
2022-09-18T11:29:24.911Z,25.40
2022-09-18T11:32:05.546Z,26.00
2022-09-18T11:34:39.135Z,26.60
2022-09-18T11:37:13.283Z,27.10
2022-09-18T11:39:45.895Z,27.40
2022-09-18T11:42:17.432Z,27.60
2022-09-18T11:44:48.059Z,27.10
2022-09-18T11:47:32.964Z,26.70
2022-09-18T11:50:22.201Z,25.90
2022-09-18T11:52:54.596Z,25.10
2022-09-18T11:55:38.831Z,24.50
2022-09-18T11:58:26.217Z,23.90
2022-09-18T12:01:31.733Z,23.90
2022-09-18T12:04:35.037Z,24.10
2022-09-18T12:07:38.533Z,24.50
2022-09-18T12:10:41.885Z,25.20
2022-09-18T12:13:57.900Z,26.20
2022-09-18T12:17:10.339Z,27.20
2022-09-18T12:19:40.297Z,28.00
2022-09-18T12:22:34.226Z,28.80
2022-09-18T12:25:15.562Z,29.40
2022-09-18T12:28:35.416Z,29.80
2022-09-18T12:31:39.641Z,29.80
2022-09-18T12:34:27.523Z,29.40
2022-09-18T12:37:42.470Z,28.80
2022-09-18T12:40:30.775Z,28.00
2022-09-18T12:43:39.051Z,27.20
2022-09-18T12:46:24.521Z,26.80
2022-09-18T12:49:05.480Z,26.50
2022-09-18T12:51:43.396Z,26.60
2022-09-18T12:54:38.288Z,26.80
2022-09-18T12:57:58.438Z,27.10
2022-09-18T13:00:27.492Z,27.70
2022-09-18T13:03:15.083Z,28.20
2022-09-18T13:05:49.882Z,28.60
2022-09-18T13:08:50.223Z,29.00
2022-09-18T13:11:32.354Z,29.50
2022-09-18T13:14:44.245Z,29.90
2022-09-18T13:17:18.699Z,30.20
2022-09-18T13:19:53.916Z,30.40
2022-09-18T13:22:22.699Z,30.60
2022-09-18T13:24:55.407Z,30.70
2022-09-18T13:27:24.773Z,30.70
2022-09-18T13:29:51.756Z,30.60
2022-09-18T13:32:21.551Z,30.30
2022-09-18T13:34:56.868Z,29.80
2022-09-18T13:37:27.145Z,29.40
2022-09-18T13:40:10.881Z,28.70
2022-09-18T13:42:43.041Z,28.10
2022-09-18T13:45:21.482Z,27.80
2022-09-18T13:48:05.964Z,27.70
2022-09-18T13:50:36.109Z,27.90
2022-09-18T13:53:04.964Z,28.00
2022-09-18T13:55:48.409Z,28.50
2022-09-18T13:58:36.405Z,28.70
2022-09-18T14:01:42.216Z,28.80
2022-09-18T14:04:39.688Z,28.70
2022-09-18T14:07:18.585Z,28.50
2022-09-18T14:10:04.601Z,28.30
2022-09-18T14:12:35.194Z,27.70
2022-09-18T14:15:21.102Z,27.30
2022-09-18T14:18:16.795Z,26.90
2022-09-18T14:20:52.887Z,26.30
2022-09-18T14:23:35.700Z,25.80
2022-09-18T14:26:25.661Z,25.20
2022-09-18T14:28:52.566Z,24.70
2022-09-18T14:31:31.994Z,24.10
2022-09-18T14:34:15.213Z,23.60
2022-09-18T14:37:01.581Z,23.20
2022-09-18T14:39:30.541Z,22.70
2022-09-18T14:42:06.807Z,22.50
2022-09-18T14:44:34.391Z,22.00
2022-09-18T14:47:05.163Z,21.60
2022-09-18T14:49:43.910Z,21.20
2022-09-18T14:52:24.950Z,20.80
2022-09-18T14:54:56.652Z,20.40
2022-09-18T14:57:33.007Z,20.10
2022-09-18T15:00:02.660Z,19.90
2022-09-18T15:02:34.320Z,19.50
2022-09-18T15:05:03.960Z,19.20
2022-09-18T15:07:30.979Z,19.00
2022-09-18T15:10:02.412Z,18.70
2022-09-18T15:12:31.505Z,18.50
2022-09-18T15:14:59.219Z,18.30
2022-09-18T15:17:32.293Z,18.20
2022-09-18T15:20:16.065Z,18.10
2022-09-18T15:22:43.334Z,18.10
2022-09-18T15:25:15.405Z,18.20
2022-09-18T15:27:45.368Z,18.40
2022-09-18T15:30:24.040Z,18.70
2022-09-18T15:33:04.460Z,19.10
2022-09-18T15:35:37.880Z,19.50
2022-09-18T15:38:17.781Z,19.90
2022-09-18T15:40:46.528Z,20.30
2022-09-18T15:43:33.823Z,20.50
2022-09-18T15:46:07.836Z,21.00
2022-09-18T15:48:45.098Z,21.20
2022-09-18T15:51:19.951Z,21.40
2022-09-18T15:54:14.817Z,21.50
2022-09-18T15:57:01.399Z,21.60
2022-09-18T15:59:33.680Z,21.50
2022-09-18T16:02:08.005Z,21.40
2022-09-18T16:04:35.942Z,21.20
2022-09-18T16:07:27.077Z,21.00
2022-09-18T16:09:54.926Z,20.80
2022-09-18T16:12:30.485Z,20.80
2022-09-18T16:15:21.122Z,20.40
2022-09-18T16:17:49.434Z,20.10
2022-09-18T16:20:34.253Z,19.90
2022-09-18T16:23:35.524Z,19.60
2022-09-18T16:26:07.825Z,19.40
2022-09-18T16:28:49.274Z,19.10
2022-09-18T16:31:20.959Z,18.90
2022-09-18T16:33:57.696Z,18.60
2022-09-18T16:36:38.781Z,18.40
2022-09-18T16:39:18.639Z,18.10
2022-09-18T16:41:48.136Z,18.00
2022-09-18T16:44:16.944Z,17.70
2022-09-18T16:47:09.690Z,17.60
2022-09-18T16:49:45.929Z,17.40
2022-09-18T16:52:13.815Z,17.20
2022-09-18T16:54:40.823Z,17.10
2022-09-18T16:57:19.755Z,16.90
2022-09-18T16:59:47.515Z,16.80
2022-09-18T17:02:18.335Z,16.80
2022-09-18T17:04:45.625Z,16.60
2022-09-18T17:07:12.427Z,16.50
2022-09-18T17:09:39.539Z,16.30
2022-09-18T17:12:07.219Z,16.10
2022-09-18T17:14:34.920Z,15.90
2022-09-18T17:17:02.173Z,15.80
2022-09-18T17:19:29.082Z,15.50
2022-09-18T17:21:56.538Z,15.30
2022-09-18T17:24:26.065Z,15.10
2022-09-18T17:26:55.156Z,14.90
2022-09-18T17:29:22.391Z,14.70
2022-09-18T17:31:49.753Z,14.50
2022-09-18T17:34:18.744Z,14.30
2022-09-18T17:36:46.124Z,14.10
2022-09-18T17:39:13.260Z,14.00
2022-09-18T17:41:42.534Z,13.80
2022-09-18T17:44:10.072Z,13.70
2022-09-18T17:46:36.979Z,13.60
2022-09-18T17:49:04.880Z,13.50
2022-09-18T17:51:34.930Z,13.40
2022-09-18T17:54:04.802Z,13.30
2022-09-18T17:56:33.029Z,13.20
2022-09-18T17:59:07.317Z,13.40
2022-09-18T18:01:37.955Z,13.10
2022-09-18T18:04:06.948Z,13.10
2022-09-18T18:06:35.312Z,13.00
2022-09-18T18:09:02.350Z,13.00
2022-09-18T18:11:29.578Z,13.00
2022-09-18T18:13:56.423Z,13.00
2022-09-18T18:16:30.614Z,12.90
2022-09-18T18:19:01.692Z,13.00
2022-09-18T18:21:31.182Z,12.90
2022-09-18T18:24:01.589Z,12.90
2022-09-18T18:26:29.592Z,12.90
2022-09-18T18:28:57.500Z,12.90
2022-09-18T18:31:25.730Z,12.90
2022-09-18T18:33:55.265Z,12.90
2022-09-18T18:36:29.646Z,12.70
2022-09-18T18:39:00.012Z,12.80
2022-09-18T18:41:29.710Z,12.80
2022-09-18T18:44:05.475Z,12.80
2022-09-18T18:46:36.024Z,12.70
2022-09-18T18:49:09.427Z,12.70
2022-09-18T18:51:47.487Z,12.70
2022-09-18T18:54:19.357Z,12.70
2022-09-18T18:56:48.996Z,12.70
2022-09-18T18:59:19.300Z,12.60
2022-09-18T19:01:47.235Z,12.60
2022-09-18T19:04:19.015Z,12.60
2022-09-18T19:06:48.886Z,12.60
2022-09-18T19:09:22.772Z,12.60
2022-09-18T19:12:16.941Z,12.60
2022-09-18T19:14:50.201Z,12.60
2022-09-18T19:17:17.333Z,12.60
2022-09-18T19:19:44.478Z,12.60
2022-09-18T19:22:17.544Z,12.60
2022-09-18T19:24:45.718Z,12.60
2022-09-18T19:27:12.803Z,12.70
2022-09-18T19:29:40.010Z,12.70
2022-09-18T19:32:08.948Z,12.70
2022-09-18T19:34:37.244Z,12.80
2022-09-18T19:37:11.004Z,12.80
2022-09-18T19:39:38.792Z,12.80
2022-09-18T19:42:14.721Z,12.80
2022-09-18T19:44:52.876Z,12.80
2022-09-18T19:47:45.895Z,12.80
2022-09-18T19:50:23.681Z,12.70
2022-09-18T19:52:51.533Z,12.90
2022-09-18T19:55:20.752Z,12.90
2022-09-18T19:57:49.176Z,12.90
2022-09-18T20:00:16.152Z,12.90
2022-09-18T20:02:43.281Z,12.90
2022-09-18T20:05:10.710Z,12.90
2022-09-18T20:07:38.439Z,12.90
2022-09-18T20:10:12.328Z,13.00
2022-09-18T20:12:42.174Z,12.90
2022-09-18T20:15:11.932Z,12.90
2022-09-18T20:17:39.642Z,12.90
2022-09-18T20:20:09.673Z,13.00
2022-09-18T20:22:39.817Z,12.90
2022-09-18T20:25:08.681Z,12.90
2022-09-18T20:27:41.889Z,12.90
2022-09-18T20:30:12.475Z,12.90
2022-09-18T20:32:39.652Z,12.90
2022-09-18T20:35:07.127Z,12.90
2022-09-18T20:37:34.189Z,12.90
2022-09-18T20:40:02.463Z,12.90
2022-09-18T20:42:34.816Z,12.90
2022-09-18T20:45:02.545Z,12.90
2022-09-18T20:47:37.373Z,12.90
2022-09-18T20:50:12.454Z,12.90
2022-09-18T20:52:43.165Z,12.90
2022-09-18T20:55:17.792Z,12.90
2022-09-18T20:57:46.376Z,12.90
2022-09-18T21:03:08.638Z,12.90
2022-09-18T21:05:35.767Z,13.00
2022-09-18T21:08:04.077Z,12.90
2022-09-18T21:10:31.571Z,12.90
2022-09-18T21:12:58.770Z,12.90
2022-09-18T21:15:25.817Z,12.90
2022-09-18T21:17:52.697Z,12.90
2022-09-18T21:20:20.515Z,12.90
2022-09-18T21:23:07.203Z,12.90
2022-09-18T21:25:35.112Z,12.90
2022-09-18T21:28:05.860Z,12.90
2022-09-18T21:30:32.914Z,13.00
2022-09-18T21:33:00.137Z,13.00
2022-09-18T21:35:27.192Z,13.00
2022-09-18T21:37:54.493Z,12.90
2022-09-18T21:40:21.498Z,12.90
2022-09-18T21:42:48.549Z,12.90
2022-09-18T21:45:19.721Z,13.00
2022-09-18T21:47:50.836Z,13.00
2022-09-18T21:50:17.880Z,13.00
2022-09-18T21:52:46.139Z,13.00
2022-09-18T21:55:12.970Z,13.00
2022-09-18T21:57:39.899Z,13.00
2022-09-18T22:00:09.721Z,13.00
2022-09-18T22:02:41.289Z,13.00
2022-09-18T22:05:12.154Z,13.00
2022-09-18T22:07:39.509Z,13.00
2022-09-18T22:10:07.310Z,13.00
2022-09-18T22:12:36.442Z,13.00
2022-09-18T22:15:03.499Z,13.00
2022-09-18T22:17:31.877Z,13.00
2022-09-18T22:19:58.847Z,13.00
2022-09-18T22:22:27.092Z,13.00
2022-09-18T22:24:54.131Z,13.00
2022-09-18T22:27:20.943Z,13.00
2022-09-18T22:29:47.971Z,13.00
2022-09-18T22:32:15.091Z,13.00
2022-09-18T22:34:41.905Z,13.00
2022-09-18T22:37:11.137Z,13.00
2022-09-18T22:39:38.256Z,13.00
2022-09-18T22:42:05.742Z,13.10
2022-09-18T22:44:32.646Z,13.10
2022-09-18T22:46:59.979Z,13.10
2022-09-18T22:49:27.236Z,13.10
2022-09-18T22:51:54.742Z,13.10
2022-09-18T22:54:28.274Z,13.10
2022-09-18T22:56:56.819Z,13.20
2022-09-18T22:59:26.491Z,13.20
2022-09-18T23:02:01.580Z,13.10
2022-09-18T23:04:31.533Z,13.20
2022-09-18T23:06:59.436Z,13.30
2022-09-18T23:09:27.295Z,13.20
2022-09-18T23:11:54.703Z,13.20
2022-09-18T23:14:28.492Z,13.20
2022-09-18T23:16:56.998Z,13.20
2022-09-18T23:19:31.977Z,13.20
2022-09-18T23:21:59.835Z,13.30
2022-09-18T23:24:27.494Z,13.30
2022-09-18T23:26:57.870Z,13.30
2022-09-18T23:29:26.715Z,13.30
2022-09-18T23:31:57.098Z,13.30
2022-09-18T23:34:29.225Z,13.30
2022-09-18T23:36:58.411Z,13.30
2022-09-18T23:39:35.789Z,13.30
2022-09-18T23:42:05.493Z,13.30
2022-09-18T23:44:33.197Z,13.40
2022-09-18T23:47:25.034Z,13.40
2022-09-18T23:49:51.913Z,13.40
2022-09-18T23:52:18.832Z,13.40
2022-09-18T23:54:46.080Z,13.40
2022-09-18T23:57:13.648Z,13.40
2022-09-18T23:59:40.436Z,13.40
